sensor_id;sensor_type;location;lat;lon;timestamp;P1;P2;P0
57623;PMS7003;43448;52.264;20.644;2023-01-30T00:00:00;15;11;
57623;PMS7003;43448;52.264;20.644;2023-01-30T00:10:00;19;12;
57623;PMS7003;43448;52.264;20.644;2023-01-30T00:20:00;11;10;
57623;PMS7003;43448;52.264;20.644;2023-01-30T00:30:00;13;10;
57623;PMS7003;43448;52.264;20.644;2023-01-30T00:40:00;14;12;
57623;PMS7003;43448;52.264;20.644;2023-01-30T00:50:00;12;11;
57623;PMS7003;43448;52.264;20.644;2023-01-30T01:00:00;10;10;
57623;PMS7003;43448;52.264;20.644;2023-01-30T01:10:00;11;11;
57623;PMS7003;43448;52.264;20.644;2023-01-30T01:20:00;11;11;
57623;PMS7003;43448;52.264;20.644;2023-01-30T01:30:00;12;10;
57623;PMS7003;43448;52.264;20.644;2023-01-30T01:40:00;10;10;
57623;PMS7003;43448;52.264;20.644;2023-01-30T01:50:00;10;8;
57623;PMS7003;43448;52.264;20.644;2023-01-30T02:00:02;8;8;
57623;PMS7003;43448;52.264;20.644;2023-01-30T02:10:00;7;7;
57623;PMS7003;43448;52.264;20.644;2023-01-30T02:20:02;9;9;
57623;PMS7003;43448;52.264;20.644;2023-01-30T02:30:09;10;9;
57623;PMS7003;43448;52.264;20.644;2023-01-30T02:40:06;7;7;
57623;PMS7003;43448;52.264;20.644;2023-01-30T02:50:01;6;5;
57623;PMS7003;43448;52.264;20.644;2023-01-30T03:00:02;6;6;
57623;PMS7003;43448;52.264;20.644;2023-01-30T03:10:01;9;8;
57623;PMS7003;43448;52.264;20.644;2023-01-30T03:20:00;9;7;
57623;PMS7003;43448;52.264;20.644;2023-01-30T03:30:00;7;7;
57623;PMS7003;43448;52.264;20.644;2023-01-30T03:40:00;10;8;
57623;PMS7003;43448;52.264;20.644;2023-01-30T03:50:00;4;4;
57623;PMS7003;43448;52.264;20.644;2023-01-30T04:00:00;9;6;
57623;PMS7003;43448;52.264;20.644;2023-01-30T04:10:00;10;6;
57623;PMS7003;43448;52.264;20.644;2023-01-30T04:20:00;12;7;
57623;PMS7003;43448;52.264;20.644;2023-01-30T04:30:00;9;7;
57623;PMS7003;43448;52.264;20.644;2023-01-30T04:40:00;7;6;
57623;PMS7003;43448;52.264;20.644;2023-01-30T04:50:00;11;10;
57623;PMS7003;43448;52.264;20.644;2023-01-30T05:00:00;11;8;
57623;PMS7003;43448;52.264;20.644;2023-01-30T05:10:00;10;8;
57623;PMS7003;43448;52.264;20.644;2023-01-30T05:20:00;21;18;
57623;PMS7003;43448;52.264;20.644;2023-01-30T05:30:00;32;23;
57623;PMS7003;43448;52.264;20.644;2023-01-30T05:40:00;37;22;
57623;PMS7003;43448;52.264;20.644;2023-01-30T05:50:00;19;16;
57623;PMS7003;43448;52.264;20.644;2023-01-30T06:00:00;26;18;
57623;PMS7003;43448;52.264;20.644;2023-01-30T06:10:00;16;12;
57623;PMS7003;43448;52.264;20.644;2023-01-30T06:20:00;20;13;
57623;PMS7003;43448;52.264;20.644;2023-01-30T06:30:00;14;12;
57623;PMS7003;43448;52.264;20.644;2023-01-30T06:40:00;15;9;
57623;PMS7003;43448;52.264;20.644;2023-01-30T06:50:00;17;10;
57623;PMS7003;43448;52.264;20.644;2023-01-30T07:00:01;10;6;
57623;PMS7003;43448;52.264;20.644;2023-01-30T07:10:00;10;9;
57623;PMS7003;43448;52.264;20.644;2023-01-30T07:20:00;8;8;
57623;PMS7003;43448;52.264;20.644;2023-01-30T07:30:00;12;9;
57623;PMS7003;43448;52.264;20.644;2023-01-30T07:40:00;11;7;
57623;PMS7003;43448;52.264;20.644;2023-01-30T07:50:00;6;5;
57623;PMS7003;43448;52.264;20.644;2023-01-30T08:00:00;21;8;
57623;PMS7003;43448;52.264;20.644;2023-01-30T08:10:00;11;8;
57623;PMS7003;43448;52.264;20.644;2023-01-30T08:20:00;12;9;
57623;PMS7003;43448;52.264;20.644;2023-01-30T08:30:00;11;10;
57623;PMS7003;43448;52.264;20.644;2023-01-30T08:40:00;7;7;
57623;PMS7003;43448;52.264;20.644;2023-01-30T08:50:00;11;7;
57623;PMS7003;43448;52.264;20.644;2023-01-30T09:00:00;12;8;
57623;PMS7003;43448;52.264;20.644;2023-01-30T09:10:00;7;6;
57623;PMS7003;43448;52.264;20.644;2023-01-30T09:20:00;8;7;
57623;PMS7003;43448;52.264;20.644;2023-01-30T09:30:00;9;9;
57623;PMS7003;43448;52.264;20.644;2023-01-30T09:40:00;12;10;
57623;PMS7003;43448;52.264;20.644;2023-01-30T09:50:02;8;7;
57623;PMS7003;43448;52.264;20.644;2023-01-30T10:00:02;11;8;
57623;PMS7003;43448;52.264;20.644;2023-01-30T10:10:02;7;5;
57623;PMS7003;43448;52.264;20.644;2023-01-30T10:20:03;9;8;
57623;PMS7003;43448;52.264;20.644;2023-01-30T10:30:01;9;8;
57623;PMS7003;43448;52.264;20.644;2023-01-30T10:40:02;10;7;
57623;PMS7003;43448;52.264;20.644;2023-01-30T10:50:03;5;4;
57623;PMS7003;43448;52.264;20.644;2023-01-30T11:00:01;9;9;
57623;PMS7003;43448;52.264;20.644;2023-01-30T11:10:00;7;6;
57623;PMS7003;43448;52.264;20.644;2023-01-30T11:20:02;11;9;
57623;PMS7003;43448;52.264;20.644;2023-01-30T11:30:03;8;6;
57623;PMS7003;43448;52.264;20.644;2023-01-30T11:40:06;8;7;
57623;PMS7003;43448;52.264;20.644;2023-01-30T11:50:00;9;5;
57623;PMS7003;43448;52.264;20.644;2023-01-30T12:00:00;4;4;
57623;PMS7003;43448;52.264;20.644;2023-01-30T12:10:00;10;7;
57623;PMS7003;43448;52.264;20.644;2023-01-30T12:20:01;6;5;
57623;PMS7003;43448;52.264;20.644;2023-01-30T12:30:02;10;7;
57623;PMS7003;43448;52.264;20.644;2023-01-30T12:40:02;6;5;
57623;PMS7003;43448;52.264;20.644;2023-01-30T12:50:04;9;6;
57623;PMS7003;43448;52.264;20.644;2023-01-30T13:00:04;6;6;
57623;PMS7003;43448;52.264;20.644;2023-01-30T13:10:02;5;4;
57623;PMS7003;43448;52.264;20.644;2023-01-30T13:20:02;10;6;
57623;PMS7003;43448;52.264;20.644;2023-01-30T13:30:00;8;4;
57623;PMS7003;43448;52.264;20.644;2023-01-30T13:40:03;6;5;
57623;PMS7003;43448;52.264;20.644;2023-01-30T13:50:05;8;6;
57623;PMS7003;43448;52.264;20.644;2023-01-30T14:00:19;6;6;
57623;PMS7003;43448;52.264;20.644;2023-01-30T14:10:02;9;6;
57623;PMS7003;43448;52.264;20.644;2023-01-30T14:20:01;7;5;
57623;PMS7003;43448;52.264;20.644;2023-01-30T14:30:00;7;6;
57623;PMS7003;43448;52.264;20.644;2023-01-30T14:40:00;5;5;
57623;PMS7003;43448;52.264;20.644;2023-01-30T14:50:00;10;7;
57623;PMS7003;43448;52.264;20.644;2023-01-30T15:00:04;6;5;
57623;PMS7003;43448;52.264;20.644;2023-01-30T15:10:02;6;6;
57623;PMS7003;43448;52.264;20.644;2023-01-30T15:20:07;9;7;
57623;PMS7003;43448;52.264;20.644;2023-01-30T15:30:10;6;6;
57623;PMS7003;43448;52.264;20.644;2023-01-30T15:40:32;7;6;
57623;PMS7003;43448;52.264;20.644;2023-01-30T15:50:00;6;6;
57623;PMS7003;43448;52.264;20.644;2023-01-30T16:00:01;5;5;
57623;PMS7003;43448;52.264;20.644;2023-01-30T16:10:00;7;5;
57623;PMS7003;43448;52.264;20.644;2023-01-30T16:20:00;6;6;
57623;PMS7003;43448;52.264;20.644;2023-01-30T16:30:01;9;6;
57623;PMS7003;43448;52.264;20.644;2023-01-30T16:40:02;7;6;
57623;PMS7003;43448;52.264;20.644;2023-01-30T16:50:00;5;4;
57623;PMS7003;43448;52.264;20.644;2023-01-30T17:00:01;8;6;
57623;PMS7003;43448;52.264;20.644;2023-01-30T17:10:00;9;8;
57623;PMS7003;43448;52.264;20.644;2023-01-30T17:20:00;8;6;
57623;PMS7003;43448;52.264;20.644;2023-01-30T17:30:00;8;7;
57623;PMS7003;43448;52.264;20.644;2023-01-30T17:40:00;8;5;
57623;PMS7003;43448;52.264;20.644;2023-01-30T17:50:00;6;6;
57623;PMS7003;43448;52.264;20.644;2023-01-30T18:00:00;8;6;
57623;PMS7003;43448;52.264;20.644;2023-01-30T18:10:00;7;5;
57623;PMS7003;43448;52.264;20.644;2023-01-30T18:20:00;8;8;
57623;PMS7003;43448;52.264;20.644;2023-01-30T18:30:00;8;8;
57623;PMS7003;43448;52.264;20.644;2023-01-30T18:40:00;8;6;
57623;PMS7003;43448;52.264;20.644;2023-01-30T18:50:00;4;4;
57623;PMS7003;43448;52.264;20.644;2023-01-30T19:00:01;7;7;
57623;PMS7003;43448;52.264;20.644;2023-01-30T19:10:00;10;9;
57623;PMS7003;43448;52.264;20.644;2023-01-30T19:20:00;11;7;
57623;PMS7003;43448;52.264;20.644;2023-01-30T19:30:00;8;7;
57623;PMS7003;43448;52.264;20.644;2023-01-30T19:40:00;6;6;
57623;PMS7003;43448;52.264;20.644;2023-01-30T19:50:00;11;9;
57623;PMS7003;43448;52.264;20.644;2023-01-30T20:00:00;10;8;
57623;PMS7003;43448;52.264;20.644;2023-01-30T20:10:00;7;7;
57623;PMS7003;43448;52.264;20.644;2023-01-30T20:20:00;10;7;
57623;PMS7003;43448;52.264;20.644;2023-01-30T20:30:00;12;10;
57623;PMS7003;43448;52.264;20.644;2023-01-30T20:40:00;9;7;
57623;PMS7003;43448;52.264;20.644;2023-01-30T20:50:00;11;7;
57623;PMS7003;43448;52.264;20.644;2023-01-30T21:00:00;7;6;
57623;PMS7003;43448;52.264;20.644;2023-01-30T21:10:00;8;6;
57623;PMS7003;43448;52.264;20.644;2023-01-30T21:20:00;9;9;
57623;PMS7003;43448;52.264;20.644;2023-01-30T21:30:00;12;7;
57623;PMS7003;43448;52.264;20.644;2023-01-30T21:40:00;8;7;
57623;PMS7003;43448;52.264;20.644;2023-01-30T21:50:00;7;6;
57623;PMS7003;43448;52.264;20.644;2023-01-30T22:00:00;4;4;
57623;PMS7003;43448;52.264;20.644;2023-01-30T22:10:00;5;5;
57623;PMS7003;43448;52.264;20.644;2023-01-30T22:20:00;8;7;
57623;PMS7003;43448;52.264;20.644;2023-01-30T22:30:00;8;7;
57623;PMS7003;43448;52.264;20.644;2023-01-30T22:40:00;10;6;
57623;PMS7003;43448;52.264;20.644;2023-01-30T22:50:00;9;8;
57623;PMS7003;43448;52.264;20.644;2023-01-30T23:00:00;6;6;
57623;PMS7003;43448;52.264;20.644;2023-01-30T23:10:00;9;8;
57623;PMS7003;43448;52.264;20.644;2023-01-30T23:20:00;4;3;
57623;PMS7003;43448;52.264;20.644;2023-01-30T23:30:00;6;5;
57623;PMS7003;43448;52.264;20.644;2023-01-30T23:40:00;6;6;
57623;PMS7003;43448;52.264;20.644;2023-01-30T23:50:00;8;5;
